Rodney Mitchell — WCV8372 — position and weather

sailwx.info

Track history (hours):
 
Tides and Currents Weather Stations Pressure Air Temp Water Temp Dewpoint Dewpoint Depression Visibility Wind Speed Wind Dir Waves Ship Positions

Rodney Mitchell

Owner: VINTON CROSBY INC, GOLDEN MEADOW, LA. More information available from US FCC via Universal Licensing System and Coast Guard Vessel Documentation Center.

Last reported at 2015-May-06 04:30 UTC. Time now 2015-May-06 16:30 UTC.
Position N 29°33' W 090°54'.

; draft 3 m.

Type: Towing. MMSI: 367028860.

Date/timePositionNaut miles runAvg speedWind from/ knotsBaromVisibWave heightAir tempDewpointWater temp
2015-May-06 04:30N 29°33' W 090°54'3 3.2
2015-May-06 03:33N 29°32' W 090°50'4 3.7
2015-May-06 02:33N 29°32' W 090°46'3 3.1
2015-May-06 01:33N 29°34' W 090°43'3 2.9
2015-May-06 00:33N 29°37' W 090°42'4 3.6
2015-May-05 23:33N 29°35' W 090°38'4 3.6
2015-May-05 22:33N 29°34' W 090°34'  
2015-May-03 09:25N 30°09' W 090°60'6 0.1
2015-May-01 08:19N 30°12' W 091°06'2 2.4
2015-May-01 07:25N 30°15' W 091°07'7 7.9
2015-May-01 06:33N 30°18' W 091°14'4 4.4
2015-May-01 05:33N 30°21' W 091°11'5 4.7
2015-May-01 04:33N 30°26' W 091°12'1 0.5
2015-May-01 03:33N 30°26' W 091°13'1 0.7
2015-May-01 02:33N 30°26' W 091°13'2 1.8
2015-May-01 01:33N 30°26' W 091°15'4 3.5
2015-May-01 00:33N 30°25' W 091°19'  
2015-Apr-26 14:06N 29°58' W 093°52'0 0.0
2015-Apr-26 12:26N 29°58' W 093°52'0 0.0
2015-Apr-26 11:33N 29°58' W 093°52'0 0.0
2015-Apr-26 10:32N 29°58' W 093°52'0 0.0
2015-Apr-26 09:33N 29°58' W 093°52'  
Track history (hours):
 
Tides and Currents Weather Stations Pressure Air Temp Water Temp Dewpoint Dewpoint Depression Visibility Wind Speed Wind Dir Waves Ship Positions

Rodney Mitchell

Owner: VINTON CROSBY INC, GOLDEN MEADOW, LA. More information available from US FCC via Universal Licensing System and Coast Guard Vessel Documentation Center.

Last reported at 2015-May-06 04:30 UTC. Time now 2015-May-06 16:30 UTC.
Position N 29°33' W 090°54'.

; draft 3 m.

Type: Towing. MMSI: 367028860.

Date/timePositionNaut miles runAvg speedWind from/ knotsBaromVisibWave heightAir tempDewpointWater temp
2015-May-06 04:30N 29°33' W 090°54'3 3.2
2015-May-06 03:33N 29°32' W 090°50'4 3.7
2015-May-06 02:33N 29°32' W 090°46'3 3.1
2015-May-06 01:33N 29°34' W 090°43'3 2.9
2015-May-06 00:33N 29°37' W 090°42'4 3.6
2015-May-05 23:33N 29°35' W 090°38'4 3.6
2015-May-05 22:33N 29°34' W 090°34'  
2015-May-03 09:25N 30°09' W 090°60'6 0.1
2015-May-01 08:19N 30°12' W 091°06'2 2.4
2015-May-01 07:25N 30°15' W 091°07'7 7.9
2015-May-01 06:33N 30°18' W 091°14'4 4.4
2015-May-01 05:33N 30°21' W 091°11'5 4.7
2015-May-01 04:33N 30°26' W 091°12'1 0.5
2015-May-01 03:33N 30°26' W 091°13'1 0.7
2015-May-01 02:33N 30°26' W 091°13'2 1.8
2015-May-01 01:33N 30°26' W 091°15'4 3.5
2015-May-01 00:33N 30°25' W 091°19'  
2015-Apr-26 14:06N 29°58' W 093°52'0 0.0
2015-Apr-26 12:26N 29°58' W 093°52'0 0.0
2015-Apr-26 11:33N 29°58' W 093°52'0 0.0
2015-Apr-26 10:32N 29°58' W 093°52'0 0.0
2015-Apr-26 09:33N 29°58' W 093°52'  

Dump ship's entire track history